Dawn, TX (79025)

2:33 PM CDT on August 29, 2015 (GMT -0500)
Hereford Municipal | | Change Station
CLOSE
Current Station
Airport
Location: Hereford,
Elevation: 3786 ft
Nearby Weather Stations

Elev 3786 ft 34.86 °N, 102.33 °W | Updated 23 minutes ago

Partly Cloudy
Partly Cloudy
90 °F
Feels Like 89 °F
N
10
Wind Variable Wind from NE

Today
High -- | Low -- °F
--% Chance of Precip.
Yesterday
High -- | Low -- °F
Precip. -- in
7:19 AM 8:19 PM
Full, 100% visible
Pressure 30.17 in
Visibility 10.0 miles
Clouds Clear
Heat Index 89 °F
Dew Point 58 °F
Humidity 34%
Rainfall 0.00 in
Snow Depth Not available.
UV 11 out of 12
Pollen 8.50 out of 12
Air Quality Not available.
Flu Activity Not available.
METAR KHRX 291910Z AUTO 05009KT 10SM CLR 32/15 A3017 RMK AO2 T03220147
Pressure 30.17 in
Visibility 10.0 miles
Clouds Clear
Heat Index 89 °F
Dew Point 58 °F
Humidity 34%
Rainfall 0.00 in
Snow Depth Not available.
UV 11 out of 12
Pollen 8.50 out of 12
Air Quality Not available.
Flu Activity Not available.
METAR KHRX 291910Z AUTO 05009KT 10SM CLR 32/15 A3017 RMK AO2 T03220147
Nowcast | as of 1:52 PM CDT on August 29, 2015

Isolated showers and thunderstorm are expected across the extreme southern Texas Panhandle through 3 PM this afternoon. These storms are expected to move south after developing along and south of a bootleg to Goodnight line. Rain amounts of a few hundredths of an inch is possible with these storms.

×

10-Day Weather Forecast

×

Almanac

Astronomy

Aug. 29, 2015 Rise Set
Actual Time
Civil Twilight
Nautical Twilight
Astronomical Twilight
Moon
Length of Visible Light
Length of Day
Tomorrow will be .
, % of the Moon is Illuminated

Today's Extremes

State Highs State Lows

Community

WunderPhotos

Upload Photos

1,850,782 photos uploaded!

WunderBlogs® & News

Nearby

Air Quality

  Air Quality AQ Index Pollutant
Not available.

Snow Depth

Station Depth Elevation

Earthquake Activity

City Distance Mag. Time & Date
Minimum magnitude displayed is 2.5.

Coastal Water Temperatures

Place Temperature

Stations

Nearby Weather Stations

Station Location Temp. Windchill Dew Point Humidity Wind Precip. Elev Updated Type